createdAt,value
2018-10-04T00:01:11.592Z,13.00
2018-10-04T00:03:45.860Z,13.00
2018-10-04T00:06:20.151Z,13.00
2018-10-04T00:08:54.508Z,13.00
2018-10-04T00:11:28.857Z,12.80
2018-10-04T00:14:03.321Z,12.80
2018-10-04T00:16:37.664Z,12.90
2018-10-04T00:19:12.048Z,12.70
2018-10-04T00:21:46.692Z,12.70
2018-10-04T00:24:21.329Z,12.70
2018-10-04T00:26:55.873Z,12.70
2018-10-04T00:29:30.553Z,12.60
2018-10-04T00:32:05.026Z,12.60
2018-10-04T00:34:39.567Z,12.60
2018-10-04T00:37:14.000Z,12.70
2018-10-04T00:39:48.643Z,12.70
2018-10-04T00:42:23.096Z,12.70
2018-10-04T00:44:57.507Z,12.80
2018-10-04T00:47:32.202Z,12.80
2018-10-04T00:50:06.919Z,12.80
2018-10-04T00:52:41.445Z,12.80
2018-10-04T00:55:16.007Z,12.80
2018-10-04T00:57:50.656Z,12.80
2018-10-04T01:00:25.265Z,12.80
2018-10-04T01:02:59.802Z,12.70
2018-10-04T01:05:34.251Z,12.70
2018-10-04T01:08:08.843Z,12.60
2018-10-04T01:10:43.345Z,12.60
2018-10-04T01:13:17.782Z,12.60
2018-10-04T01:15:52.300Z,12.60
2018-10-04T01:18:38.193Z,12.30
2018-10-04T01:21:12.895Z,12.10
2018-10-04T01:23:47.463Z,11.80
2018-10-04T01:26:21.982Z,11.80
2018-10-04T01:28:56.394Z,11.90
2018-10-04T01:31:30.945Z,12.00
2018-10-04T01:34:05.529Z,12.10
2018-10-04T01:36:40.058Z,12.20
2018-10-04T01:39:14.658Z,12.30
2018-10-04T01:41:49.173Z,12.30
2018-10-04T01:44:23.887Z,12.30
2018-10-04T01:46:58.521Z,12.40
2018-10-04T01:49:33.034Z,12.40
2018-10-04T01:52:07.559Z,12.40
2018-10-04T01:54:42.024Z,12.40
2018-10-04T01:57:16.467Z,12.50
2018-10-04T01:59:51.020Z,12.50
2018-10-04T02:02:25.616Z,12.50
2018-10-04T02:05:00.159Z,12.40
2018-10-04T02:07:34.532Z,12.30
2018-10-04T02:10:08.960Z,12.40
2018-10-04T02:12:43.417Z,12.30
2018-10-04T02:15:17.955Z,12.30
2018-10-04T02:17:52.343Z,12.30
2018-10-04T02:20:26.723Z,12.30
2018-10-04T02:23:01.317Z,12.30
2018-10-04T02:25:35.968Z,12.30
2018-10-04T02:28:10.508Z,12.30
2018-10-04T02:30:44.866Z,12.20
2018-10-04T02:33:19.492Z,12.10
2018-10-04T02:35:53.991Z,12.10
2018-10-04T02:38:28.361Z,12.10
2018-10-04T02:41:03.212Z,12.20
2018-10-04T02:43:37.745Z,12.10
2018-10-04T02:46:12.369Z,12.00
2018-10-04T02:48:47.031Z,12.00
2018-10-04T02:51:21.439Z,12.00
2018-10-04T02:53:55.979Z,11.90
2018-10-04T02:56:35.990Z,11.80
2018-10-04T02:59:10.716Z,11.70
2018-10-04T03:01:45.202Z,11.60
2018-10-04T03:04:19.893Z,11.60
2018-10-04T03:06:54.427Z,11.70
2018-10-04T03:09:29.015Z,11.60
2018-10-04T03:12:03.411Z,11.50
2018-10-04T03:14:37.747Z,11.50
2018-10-04T03:17:12.163Z,11.50
2018-10-04T03:19:46.429Z,11.50
2018-10-04T03:22:20.703Z,11.50
2018-10-04T03:24:54.961Z,11.50
2018-10-04T03:27:29.457Z,11.50
2018-10-04T03:30:03.984Z,11.40
2018-10-04T03:32:38.257Z,11.40
2018-10-04T03:35:12.593Z,11.40
2018-10-04T03:37:46.986Z,11.30
2018-10-04T03:40:21.518Z,11.30
2018-10-04T03:42:55.989Z,11.20
2018-10-04T03:45:30.319Z,11.20
2018-10-04T03:48:05.002Z,11.10
2018-10-04T03:50:39.641Z,11.00
2018-10-04T03:53:14.218Z,11.00
2018-10-04T03:55:48.970Z,11.00
2018-10-04T03:58:23.647Z,10.90
2018-10-04T04:00:58.248Z,10.80
2018-10-04T04:03:32.608Z,10.70
2018-10-04T04:06:07.059Z,10.70
2018-10-04T04:08:41.480Z,10.60
2018-10-04T04:11:15.977Z,10.60
2018-10-04T04:13:50.613Z,10.50
2018-10-04T04:16:25.057Z,10.40
2018-10-04T04:18:59.579Z,10.40
2018-10-04T04:21:34.245Z,10.40
2018-10-04T04:24:08.793Z,10.40
2018-10-04T04:26:43.249Z,10.30
2018-10-04T04:29:17.632Z,10.40
2018-10-04T04:31:52.171Z,10.30
2018-10-04T04:34:26.780Z,10.30
2018-10-04T04:37:01.269Z,10.30
2018-10-04T04:39:35.647Z,10.20
2018-10-04T04:42:10.125Z,10.10
2018-10-04T04:44:44.644Z,10.10
2018-10-04T04:47:19.052Z,10.10
2018-10-04T04:49:53.695Z,10.00
2018-10-04T04:52:28.194Z,10.00
2018-10-04T04:55:25.782Z,10.00
2018-10-04T04:58:01.303Z,9.90
2018-10-04T05:00:36.853Z,9.80
2018-10-04T05:03:11.546Z,9.80
2018-10-04T05:05:46.072Z,9.80
2018-10-04T05:08:20.781Z,9.80
2018-10-04T05:10:55.306Z,9.80
2018-10-04T05:13:29.947Z,9.80
2018-10-04T05:16:04.517Z,9.80
2018-10-04T05:18:39.050Z,9.70
2018-10-04T05:21:13.456Z,9.70
2018-10-04T05:23:47.890Z,9.70
2018-10-04T05:26:22.555Z,9.80
2018-10-04T05:28:57.171Z,9.90
2018-10-04T05:31:31.827Z,9.90
2018-10-04T05:34:06.215Z,9.90
2018-10-04T05:36:40.723Z,9.80
2018-10-04T05:39:15.307Z,9.70
2018-10-04T05:41:49.732Z,9.80
2018-10-04T05:44:24.379Z,9.90
2018-10-04T05:46:58.881Z,9.90
2018-10-04T05:49:33.336Z,9.90
2018-10-04T05:52:08.055Z,9.90
2018-10-04T05:54:42.716Z,9.90
2018-10-04T05:57:17.111Z,9.90
2018-10-04T06:00:03.050Z,10.00
2018-10-04T06:02:37.389Z,9.90
2018-10-04T06:05:11.770Z,9.80
2018-10-04T06:07:46.206Z,9.80
2018-10-04T06:10:20.843Z,9.90
2018-10-04T06:12:55.447Z,9.90
2018-10-04T06:15:30.228Z,9.90
2018-10-04T06:18:04.707Z,9.90
2018-10-04T06:20:40.291Z,9.90
2018-10-04T06:23:14.894Z,9.90
2018-10-04T06:25:49.440Z,10.00
2018-10-04T06:28:23.853Z,9.90
2018-10-04T06:30:58.495Z,9.90
2018-10-04T06:33:32.904Z,10.00
2018-10-04T06:36:07.649Z,10.00
2018-10-04T06:38:42.086Z,10.10
2018-10-04T06:41:16.495Z,10.10
2018-10-04T06:43:51.082Z,10.20
2018-10-04T06:46:25.601Z,10.30
2018-10-04T06:49:00.031Z,10.30
2018-10-04T06:51:34.657Z,10.30
2018-10-04T06:54:09.278Z,10.30
2018-10-04T06:56:43.893Z,10.30
2018-10-04T06:59:18.609Z,10.40
2018-10-04T07:01:53.112Z,10.40
2018-10-04T07:04:27.647Z,10.40
2018-10-04T07:07:02.288Z,10.40
2018-10-04T07:09:36.686Z,10.40
2018-10-04T07:12:11.411Z,10.40
2018-10-04T07:14:45.800Z,10.60
2018-10-04T07:17:20.231Z,10.70
2018-10-04T07:19:54.753Z,10.80
2018-10-04T07:22:29.378Z,10.90
2018-10-04T07:25:03.907Z,11.00
2018-10-04T07:27:38.562Z,11.10
2018-10-04T07:30:13.103Z,11.20
2018-10-04T07:32:47.646Z,11.30
2018-10-04T07:35:22.220Z,11.40
2018-10-04T07:37:56.883Z,11.60
2018-10-04T07:40:31.275Z,11.80
2018-10-04T07:43:05.850Z,11.90
2018-10-04T07:45:40.436Z,12.00
2018-10-04T07:48:15.218Z,12.20
2018-10-04T07:50:49.773Z,12.30
2018-10-04T07:53:24.134Z,12.30
2018-10-04T07:55:58.579Z,12.40
2018-10-04T07:58:33.114Z,12.40
2018-10-04T08:01:08.081Z,12.40
2018-10-04T08:03:42.532Z,12.70
2018-10-04T08:06:17.251Z,12.70
2018-10-04T08:08:51.732Z,12.80
2018-10-04T08:11:26.209Z,13.00
2018-10-04T08:14:00.957Z,13.10
2018-10-04T08:16:35.791Z,13.30
2018-10-04T08:19:10.445Z,13.50
2018-10-04T08:21:45.173Z,13.60
2018-10-04T08:24:19.640Z,13.70
2018-10-04T08:26:54.240Z,13.90
2018-10-04T08:29:28.702Z,13.90
2018-10-04T08:32:03.259Z,14.00
2018-10-04T08:34:37.804Z,14.10
2018-10-04T08:37:12.375Z,14.10
2018-10-04T08:39:46.919Z,14.20
2018-10-04T08:42:21.340Z,14.20
2018-10-04T08:44:55.713Z,14.20
2018-10-04T08:47:30.239Z,14.30
2018-10-04T08:50:04.890Z,14.40
2018-10-04T08:52:44.933Z,14.40
2018-10-04T08:55:24.665Z,14.40
2018-10-04T08:57:59.378Z,14.50
2018-10-04T09:00:34.177Z,14.60
2018-10-04T09:03:08.696Z,14.80
2018-10-04T09:05:43.373Z,14.90
2018-10-04T09:08:18.067Z,14.90
2018-10-04T09:10:52.496Z,15.10
2018-10-04T09:13:27.114Z,15.30
2018-10-04T09:16:01.699Z,15.20
2018-10-04T09:18:36.204Z,15.00
2018-10-04T09:21:10.629Z,15.20
2018-10-04T09:23:45.146Z,15.20
2018-10-04T09:26:19.636Z,15.30
2018-10-04T09:28:59.492Z,15.30
2018-10-04T09:31:36.784Z,15.50
2018-10-04T09:34:11.374Z,15.80
2018-10-04T09:36:45.974Z,15.90
2018-10-04T09:39:20.427Z,16.10
2018-10-04T09:41:55.124Z,16.10
2018-10-04T09:44:29.560Z,16.20
2018-10-04T09:47:09.516Z,16.50
2018-10-04T09:49:43.994Z,16.50
2018-10-04T09:52:18.550Z,16.50
2018-10-04T09:54:58.585Z,16.60
2018-10-04T09:57:36.639Z,16.80
2018-10-04T10:00:17.382Z,17.00
2018-10-04T10:02:55.129Z,17.10
2018-10-04T10:05:29.773Z,16.90
2018-10-04T10:08:04.227Z,16.80
2018-10-04T10:10:38.740Z,16.90
2018-10-04T10:13:13.210Z,16.90
2018-10-04T10:15:47.828Z,16.90
2018-10-04T10:18:22.375Z,16.90
2018-10-04T10:20:57.003Z,16.80
2018-10-04T10:23:31.644Z,16.80
2018-10-04T10:26:06.244Z,16.70
2018-10-04T10:28:40.822Z,16.70
2018-10-04T10:31:15.265Z,17.00
2018-10-04T10:33:49.824Z,17.20
2018-10-04T10:36:24.260Z,17.30
2018-10-04T10:38:58.863Z,17.50
2018-10-04T10:41:33.439Z,17.60
2018-10-04T10:44:08.520Z,17.60
2018-10-04T10:46:43.027Z,17.50
2018-10-04T10:49:17.638Z,17.50
2018-10-04T10:51:52.195Z,17.50
2018-10-04T10:54:26.748Z,17.60
2018-10-04T10:57:01.321Z,17.50
2018-10-04T10:59:35.781Z,17.60
2018-10-04T11:02:10.396Z,17.80
2018-10-04T11:04:44.984Z,18.00
2018-10-04T11:07:19.527Z,18.00
2018-10-04T11:09:54.023Z,17.90
2018-10-04T11:12:28.631Z,18.00
2018-10-04T11:15:03.296Z,18.10
2018-10-04T11:17:37.808Z,18.20
2018-10-04T11:20:12.355Z,18.20
2018-10-04T11:22:46.716Z,18.00
2018-10-04T11:25:21.388Z,17.90
2018-10-04T11:27:55.915Z,17.80
2018-10-04T11:30:30.447Z,17.70
2018-10-04T11:33:05.069Z,17.70
2018-10-04T11:35:39.471Z,18.00
2018-10-04T11:38:13.980Z,18.10
2018-10-04T11:40:48.613Z,18.20
2018-10-04T11:43:24.962Z,18.00
2018-10-04T11:46:01.025Z,18.00
2018-10-04T11:48:37.062Z,18.00
2018-10-04T11:51:11.471Z,17.90
2018-10-04T11:53:46.446Z,17.90
2018-10-04T11:56:20.952Z,18.00
2018-10-04T11:58:55.503Z,18.00
2018-10-04T12:01:29.935Z,17.90
2018-10-04T12:04:04.255Z,18.00
2018-10-04T12:06:38.900Z,18.00
2018-10-04T12:09:13.341Z,18.30
2018-10-04T12:11:47.845Z,18.30
2018-10-04T12:14:22.368Z,18.30
2018-10-04T12:16:56.889Z,18.10
2018-10-04T12:19:31.312Z,18.20
2018-10-04T12:22:05.858Z,18.20
2018-10-04T12:24:40.301Z,18.00
2018-10-04T12:27:15.010Z,18.10
2018-10-04T12:29:49.401Z,18.30
2018-10-04T12:32:23.870Z,18.40
2018-10-04T12:34:58.379Z,18.40
2018-10-04T12:37:32.988Z,18.40
2018-10-04T12:40:07.651Z,18.40
2018-10-04T12:42:42.175Z,18.40
2018-10-04T12:45:16.804Z,18.50
2018-10-04T12:47:51.152Z,18.50
2018-10-04T12:50:25.810Z,18.40
2018-10-04T12:53:00.285Z,18.30
2018-10-04T12:55:34.746Z,18.40
2018-10-04T12:58:09.188Z,18.50
2018-10-04T13:00:43.580Z,18.40
2018-10-04T13:03:18.158Z,18.50
2018-10-04T13:05:52.740Z,18.50
2018-10-04T13:08:27.391Z,18.30
2018-10-04T13:11:01.709Z,18.10
2018-10-04T13:13:36.229Z,18.10
2018-10-04T13:16:10.551Z,18.00
2018-10-04T13:18:44.957Z,17.90
2018-10-04T13:21:19.564Z,17.90
2018-10-04T13:23:54.109Z,18.00
2018-10-04T13:26:28.753Z,18.00
2018-10-04T13:29:03.306Z,18.10
2018-10-04T13:31:37.820Z,18.20
2018-10-04T13:34:12.412Z,18.10
2018-10-04T13:36:47.019Z,18.00
2018-10-04T13:39:21.517Z,17.90
2018-10-04T13:41:56.065Z,17.90
2018-10-04T13:44:30.639Z,18.00
2018-10-04T13:47:05.238Z,17.90
2018-10-04T13:49:39.810Z,17.90
2018-10-04T13:52:14.283Z,18.00
2018-10-04T13:54:48.829Z,18.10
2018-10-04T13:57:23.437Z,18.10
2018-10-04T13:59:58.061Z,18.00
2018-10-04T14:02:32.730Z,17.80
2018-10-04T14:05:07.112Z,17.70
2018-10-04T14:07:41.788Z,17.70
2018-10-04T14:10:16.330Z,17.80
2018-10-04T14:12:50.790Z,17.70
2018-10-04T14:15:25.211Z,17.70
2018-10-04T14:17:59.668Z,17.70
2018-10-04T14:20:33.976Z,17.70
2018-10-04T14:23:08.573Z,17.80
2018-10-04T14:25:43.052Z,17.80
2018-10-04T14:28:17.559Z,17.70
2018-10-04T14:30:52.110Z,17.70
2018-10-04T14:33:26.731Z,17.70
2018-10-04T14:36:01.175Z,17.90
2018-10-04T14:38:35.679Z,17.90
2018-10-04T14:41:10.255Z,17.90
2018-10-04T14:43:44.855Z,18.00
2018-10-04T14:46:19.896Z,17.80
2018-10-04T14:48:54.421Z,17.70
2018-10-04T14:51:28.955Z,17.80
2018-10-04T14:54:03.355Z,17.80
2018-10-04T14:56:38.006Z,17.60
2018-10-04T14:59:12.552Z,17.40
2018-10-04T15:01:47.145Z,17.30
2018-10-04T15:04:21.540Z,17.40
2018-10-04T15:06:56.164Z,17.40
2018-10-04T15:09:30.844Z,17.40
2018-10-04T15:12:05.328Z,17.30
2018-10-04T15:14:39.986Z,17.10
2018-10-04T15:17:14.600Z,17.10
2018-10-04T15:19:49.136Z,17.20
2018-10-04T15:22:23.828Z,17.20
2018-10-04T15:24:58.221Z,17.20
2018-10-04T15:27:32.772Z,17.10
2018-10-04T15:30:08.070Z,16.90
2018-10-04T15:32:42.598Z,17.00
2018-10-04T15:35:17.158Z,17.00
2018-10-04T15:37:51.853Z,17.10
2018-10-04T15:40:26.328Z,17.00
2018-10-04T15:43:01.235Z,17.00
2018-10-04T15:45:35.898Z,17.00
2018-10-04T15:48:10.359Z,17.00
2018-10-04T15:50:44.933Z,16.90
2018-10-04T15:53:19.600Z,16.80
2018-10-04T15:55:54.141Z,16.80
2018-10-04T15:58:28.703Z,16.60
2018-10-04T16:01:03.232Z,16.60
2018-10-04T16:03:37.964Z,16.50
2018-10-04T16:06:12.529Z,16.40
2018-10-04T16:08:47.081Z,16.40
2018-10-04T16:11:21.740Z,16.50
2018-10-04T16:13:56.401Z,16.60
2018-10-04T16:16:30.831Z,16.50
2018-10-04T16:19:05.577Z,16.50
2018-10-04T16:21:40.054Z,16.50
2018-10-04T16:24:14.533Z,16.40
2018-10-04T16:26:49.134Z,16.30
2018-10-04T16:29:23.607Z,16.30
2018-10-04T16:31:58.062Z,16.30
2018-10-04T16:34:32.584Z,16.30
2018-10-04T16:37:07.125Z,16.40
2018-10-04T16:39:41.685Z,16.40
2018-10-04T16:42:16.288Z,16.30
2018-10-04T16:44:50.893Z,16.40
2018-10-04T16:47:25.468Z,16.30
2018-10-04T16:50:00.086Z,16.30
2018-10-04T16:52:34.646Z,16.30
2018-10-04T16:55:09.195Z,16.20
2018-10-04T16:57:43.786Z,16.10
2018-10-04T17:00:18.406Z,16.00
2018-10-04T17:02:53.033Z,15.90
2018-10-04T17:05:27.517Z,15.90
2018-10-04T17:08:01.780Z,15.90
2018-10-04T17:10:36.357Z,15.80
2018-10-04T17:13:10.838Z,15.80
2018-10-04T17:15:45.399Z,15.70
2018-10-04T17:18:19.795Z,15.70
2018-10-04T17:20:54.361Z,15.60
2018-10-04T17:23:31.206Z,15.50
2018-10-04T17:26:06.069Z,15.50
2018-10-04T17:28:40.723Z,15.50
2018-10-04T17:31:15.368Z,15.50
2018-10-04T17:33:49.845Z,15.50
2018-10-04T17:36:24.721Z,15.50
2018-10-04T17:38:59.159Z,15.40
2018-10-04T17:41:33.711Z,15.30
2018-10-04T17:44:08.364Z,15.20
2018-10-04T17:46:42.741Z,15.10
2018-10-04T17:49:17.217Z,15.00
2018-10-04T17:51:51.652Z,15.00
2018-10-04T17:54:26.096Z,14.90
2018-10-04T17:57:00.384Z,15.00
2018-10-04T17:59:34.831Z,15.00
2018-10-04T18:02:09.237Z,15.00
2018-10-04T18:04:44.896Z,15.00
2018-10-04T18:07:19.314Z,15.00
2018-10-04T18:09:53.598Z,15.00
2018-10-04T18:12:28.067Z,15.00
2018-10-04T18:15:02.359Z,14.90
2018-10-04T18:17:37.258Z,14.80
2018-10-04T18:20:12.507Z,14.80
2018-10-04T18:22:48.503Z,14.80
2018-10-04T18:25:22.835Z,14.80
2018-10-04T18:27:57.296Z,14.80
2018-10-04T18:30:31.680Z,14.80
2018-10-04T18:33:06.107Z,14.70
2018-10-04T18:35:40.695Z,14.60
2018-10-04T18:38:14.979Z,14.50
2018-10-04T18:40:50.893Z,14.40
2018-10-04T18:43:25.478Z,14.40
2018-10-04T18:46:00.400Z,14.40
2018-10-04T18:48:34.887Z,14.30
2018-10-04T18:51:09.221Z,14.30
2018-10-04T18:53:43.780Z,14.20
2018-10-04T18:56:18.670Z,14.20
2018-10-04T18:58:53.163Z,14.20
2018-10-04T19:01:27.661Z,14.20
2018-10-04T19:04:02.191Z,14.10
2018-10-04T19:06:36.455Z,14.00
2018-10-04T19:09:10.852Z,13.90
2018-10-04T19:11:45.269Z,13.90
2018-10-04T19:14:19.556Z,13.80
2018-10-04T19:16:53.995Z,13.80
2018-10-04T19:19:28.357Z,13.80
2018-10-04T19:22:02.675Z,13.80
2018-10-04T19:24:37.011Z,13.80
2018-10-04T19:27:11.389Z,13.60
2018-10-04T19:29:45.793Z,13.30
2018-10-04T19:32:20.300Z,13.20
2018-10-04T19:34:54.579Z,13.10
2018-10-04T19:37:29.016Z,12.90
2018-10-04T19:40:03.456Z,12.80
2018-10-04T19:42:37.797Z,12.80
2018-10-04T19:45:12.128Z,12.70
2018-10-04T19:47:46.537Z,12.70
2018-10-04T19:50:20.901Z,12.50
2018-10-04T19:52:55.192Z,12.50
2018-10-04T19:55:29.541Z,12.50
2018-10-04T19:58:03.784Z,12.50
2018-10-04T20:00:38.057Z,12.40
2018-10-04T20:03:12.389Z,12.40
2018-10-04T20:05:46.698Z,12.40
2018-10-04T20:08:21.129Z,12.40
2018-10-04T20:10:55.496Z,12.40
2018-10-04T20:13:29.779Z,12.40
2018-10-04T20:16:04.366Z,12.30
2018-10-04T20:18:38.800Z,12.00
2018-10-04T20:21:13.361Z,11.90
2018-10-04T20:23:47.835Z,11.90
2018-10-04T20:26:22.238Z,11.90
2018-10-04T20:28:56.572Z,11.90
2018-10-04T20:31:30.979Z,11.90
2018-10-04T20:34:05.419Z,11.90
2018-10-04T20:36:39.875Z,11.80
2018-10-04T20:39:14.296Z,11.90
2018-10-04T20:41:48.712Z,11.90
2018-10-04T20:44:23.337Z,11.80
2018-10-04T20:46:57.884Z,11.80
2018-10-04T20:49:32.332Z,11.80
2018-10-04T20:52:06.785Z,11.70
2018-10-04T20:54:41.427Z,11.70
2018-10-04T20:57:16.052Z,11.60
2018-10-04T20:59:50.607Z,11.60
2018-10-04T21:02:25.164Z,11.60
2018-10-04T21:04:59.669Z,11.60
2018-10-04T21:07:34.144Z,11.50
2018-10-04T21:10:08.459Z,11.30
2018-10-04T21:12:43.135Z,11.30
2018-10-04T21:15:17.489Z,11.10
2018-10-04T21:17:51.815Z,11.00
2018-10-04T21:20:26.089Z,11.00
2018-10-04T21:23:00.393Z,11.00
2018-10-04T21:25:34.784Z,10.90
2018-10-04T21:28:09.303Z,10.80
2018-10-04T21:30:43.848Z,10.70
2018-10-04T21:33:18.388Z,10.70
2018-10-04T21:35:52.878Z,10.70
2018-10-04T21:38:27.376Z,10.70
2018-10-04T21:41:02.032Z,10.70
2018-10-04T21:43:36.446Z,10.70
2018-10-04T21:46:10.853Z,10.70
2018-10-04T21:48:45.430Z,10.70
2018-10-04T21:51:19.895Z,10.80
2018-10-04T21:53:54.333Z,10.70
2018-10-04T21:56:28.940Z,10.60
2018-10-04T21:59:03.616Z,10.30
2018-10-04T22:01:38.117Z,10.00
2018-10-04T22:04:12.656Z,9.80
2018-10-04T22:06:47.117Z,9.80
2018-10-04T22:09:21.564Z,9.70
2018-10-04T22:11:55.937Z,9.80
2018-10-04T22:14:30.272Z,9.80
2018-10-04T22:17:04.580Z,9.80
2018-10-04T22:19:38.999Z,9.90
2018-10-04T22:22:13.335Z,10.10
2018-10-04T22:24:47.570Z,10.10
2018-10-04T22:27:21.829Z,9.90
2018-10-04T22:29:56.239Z,9.90
2018-10-04T22:32:30.542Z,9.90
2018-10-04T22:35:04.887Z,9.90
2018-10-04T22:37:39.165Z,9.90
2018-10-04T22:40:13.576Z,9.90
2018-10-04T22:42:47.849Z,9.90
2018-10-04T22:45:22.151Z,9.80
2018-10-04T22:47:56.648Z,9.80
2018-10-04T22:50:31.145Z,9.60
2018-10-04T22:53:05.615Z,9.60
2018-10-04T22:55:40.189Z,9.50
2018-10-04T22:58:14.680Z,9.60
2018-10-04T23:00:49.078Z,9.60
2018-10-04T23:03:23.612Z,9.60
2018-10-04T23:05:58.258Z,9.50
2018-10-04T23:08:32.787Z,9.50
2018-10-04T23:11:07.398Z,9.50
2018-10-04T23:13:41.994Z,9.50
2018-10-04T23:16:16.648Z,9.30
2018-10-04T23:18:51.251Z,9.30
2018-10-04T23:21:25.753Z,9.30
2018-10-04T23:24:00.249Z,9.20
2018-10-04T23:26:34.577Z,9.20
2018-10-04T23:29:08.936Z,9.20
2018-10-04T23:31:43.383Z,9.20
2018-10-04T23:34:18.049Z,9.20
2018-10-04T23:36:52.495Z,8.90
2018-10-04T23:39:26.984Z,8.90
2018-10-04T23:42:01.459Z,8.90
2018-10-04T23:44:35.835Z,8.90
2018-10-04T23:47:10.241Z,8.90
2018-10-04T23:49:44.609Z,8.90
2018-10-04T23:52:19.141Z,8.80
2018-10-04T23:54:53.734Z,8.80
2018-10-04T23:57:28.411Z,8.70
